Time;durP1;ratioP1;P1;durP2;ratioP2;P2;SDS_P1;SDS_P2;PMS_P1;PMS_P2;Temp;Humidity;BMP_temperature;BMP_pressure;BME280_temperature;BME280_humidity;BME280_pressure;Samples;Min_cycle;Max_cycle;Signal;HPM_P1;HPM_P2
2022/01/19 00:01:45;;;;;;;;;;;0.80;99.90;;;;;;5076059;28;19931;-79
2022/01/19 00:04:12;;;;;;;;;;;0.70;99.90;;;;;;5079209;28;20008;-79
2022/01/19 00:06:39;;;;;;;;;;;0.70;99.90;;;;;;5075510;28;19924;-79
2022/01/19 00:09:05;;;;;;;;;;;0.70;99.90;;;;;;5073021;28;20015;-78
2022/01/19 00:11:32;;;;;;;;;;;0.60;99.90;;;;;;5076623;28;19931;-78
2022/01/19 00:13:59;;;;;;;;;;;0.60;99.90;;;;;;5071159;28;19924;-78
2022/01/19 00:16:27;;;;;;;;;;;0.50;99.90;;;;;;5079008;28;19924;-79
2022/01/19 00:18:54;;;;;;;;;;;0.50;99.90;;;;;;5072258;28;19924;-78
2022/01/19 00:21:21;;;;;;;;;;;0.40;99.90;;;;;;5074673;28;19932;-78
2022/01/19 00:23:47;;;;;;;;;;;0.30;99.90;;;;;;5074177;28;19925;-78
2022/01/19 00:26:14;;;;;;;;;;;0.30;99.90;;;;;;5072710;28;19924;-78
2022/01/19 00:28:41;;;;;;;;;;;0.30;99.90;;;;;;5075888;28;19931;-79
2022/01/19 00:31:08;;;;;;;;;;;0.20;99.90;;;;;;5074202;28;19928;-78
2022/01/19 00:33:36;;;;;;;;;;;0.20;99.90;;;;;;5079789;28;19931;-78
2022/01/19 00:36:03;;;;;;;;;;;0.20;99.90;;;;;;5076618;28;19931;-78
2022/01/19 00:38:31;;;;;;;;;;;0.10;99.90;;;;;;5095256;28;19909;-79
2022/01/19 00:40:58;;;;;;;;;;;0.10;99.90;;;;;;5094150;28;19964;-79
2022/01/19 00:43:24;;;;;;;;;;;0.10;99.90;;;;;;5097036;28;19924;-74
2022/01/19 00:45:54;;;;;;;;;;;0.00;99.90;;;;;;5082685;28;20019;-78
2022/01/19 00:48:20;;;;;;;;;;;0.10;99.90;;;;;;5081171;28;20637;-79
2022/01/19 00:50:49;;;;;;;;;;;0.00;99.90;;;;;;5076573;28;19950;-79
2022/01/19 00:53:16;;;;;;;;;;;0.10;99.90;;;;;;5077739;28;19924;-79
2022/01/19 00:55:43;;;;;;;;;;;0.10;99.90;;;;;;5077514;28;19947;-79
2022/01/19 00:58:09;;;;;;;;;;;0.10;99.90;;;;;;5080660;28;19931;-79
2022/01/19 01:00:36;;;;;;;;;;;0.10;99.90;;;;;;5084238;28;19979;-80
2022/01/19 01:03:04;;;;;;;;;;;0.10;99.90;;;;;;5088123;28;19924;-79
2022/01/19 01:05:31;;;;;;;;;;;0.10;99.90;;;;;;5084449;28;19928;-79
2022/01/19 01:07:59;;;;;;;;;;;0.00;99.90;;;;;;5082385;28;19931;-78
2022/01/19 01:10:26;;;;;;;;;;;-0.10;99.90;;;;;;5081587;28;19924;-78
2022/01/19 01:12:55;;;;;;;;;;;-0.20;99.90;;;;;;5082999;28;19943;-79
2022/01/19 01:15:29;;;;;;;;;;;-0.30;99.90;;;;;;5081547;28;19977;-78
2022/01/19 01:20:40;;;;;;;;;;;-0.20;99.90;;;;;;5091003;28;19931;-80
2022/01/19 01:23:09;;;;;;;;;;;-0.20;99.90;;;;;;5094179;28;19908;-79
2022/01/19 01:25:36;;;;;;;;;;;-0.20;99.90;;;;;;5089486;28;19924;-80
2022/01/19 01:28:03;;;;;;;;;;;-0.30;99.90;;;;;;5088692;28;19924;-79
2022/01/19 01:30:29;;;;;;;;;;;-0.30;99.90;;;;;;5083980;28;19940;-79
2022/01/19 01:32:56;;;;;;;;;;;-0.30;99.90;;;;;;5076078;28;19925;-79
2022/01/19 01:35:22;;;;;;;;;;;-0.30;99.90;;;;;;5077698;28;19925;-78
2022/01/19 01:37:49;;;;;;;;;;;-0.30;99.90;;;;;;5076039;28;19947;-78
2022/01/19 01:40:17;;;;;;;;;;;-0.30;99.90;;;;;;5077799;28;19955;-79
2022/01/19 01:42:44;;;;;;;;;;;-0.20;99.90;;;;;;5077382;28;19924;-79
2022/01/19 01:45:13;;;;;;;;;;;-0.10;99.90;;;;;;5080779;28;19978;-78
2022/01/19 01:47:45;;;;;;;;;;;-0.10;99.90;;;;;;5075460;28;19983;-79
2022/01/19 01:55:45;;;;;;;;;;;0.00;99.90;;;;;;5079192;28;19931;-79
2022/01/19 01:58:12;;;;;;;;;;;0.10;99.90;;;;;;5072244;28;19939;-78
2022/01/19 02:00:38;;;;;;;;;;;0.10;99.90;;;;;;5072159;28;19928;-78
2022/01/19 02:03:05;;;;;;;;;;;0.10;99.90;;;;;;5073802;28;19924;-77
2022/01/19 02:05:35;;;;;;;;;;;0.10;99.90;;;;;;5084297;28;19928;-79
2022/01/19 02:08:07;;;;;;;;;;;0.00;99.90;;;;;;5086467;28;19924;-80
2022/01/19 02:10:40;;;;;;;;;;;0.00;99.90;;;;;;5087144;28;19924;-80
2022/01/19 02:16:10;;;;;;;;;;;-0.10;99.90;;;;;;5083402;28;19939;-79
2022/01/19 02:21:44;;;;;;;;;;;-0.20;99.90;;;;;;5084804;28;19936;-80
2022/01/19 02:24:14;;;;;;;;;;;-0.30;99.90;;;;;;5081953;28;20283;-79
2022/01/19 02:27:02;;;;;;;;;;;-0.30;99.90;;;;;;5081886;28;19924;-79
2022/01/19 02:30:19;;;;;;;;;;;-0.40;99.90;;;;;;5083995;28;19933;-79
2022/01/19 02:40:53;;;;;;;;;;;-0.50;99.90;;;;;;5075171;28;19955;-79
2022/01/19 02:43:25;;;;;;;;;;;-0.50;99.90;;;;;;5077020;28;19964;-78
2022/01/19 02:51:20;;;;;;;;;;;-0.60;99.90;;;;;;5077635;28;19991;-79
2022/01/19 02:53:49;;;;;;;;;;;-0.60;99.90;;;;;;5086484;28;19963;-80
2022/01/19 02:56:21;;;;;;;;;;;-0.60;99.90;;;;;;5088597;28;19952;-80
2022/01/19 02:58:51;;;;;;;;;;;-0.60;99.90;;;;;;5088453;28;19931;-79
2022/01/19 03:09:32;;;;;;;;;;;-0.30;99.90;;;;;;5090837;28;19954;-80
2022/01/19 03:11:59;;;;;;;;;;;-0.20;99.90;;;;;;5092337;28;19988;-79
2022/01/19 03:14:26;;;;;;;;;;;-0.10;99.90;;;;;;5091637;28;19931;-79
2022/01/19 03:16:52;;;;;;;;;;;0.00;99.90;;;;;;5076404;28;19967;-79
2022/01/19 03:19:19;;;;;;;;;;;0.00;99.90;;;;;;5085010;28;19935;-79
2022/01/19 03:21:46;;;;;;;;;;;0.10;99.90;;;;;;5086026;28;19984;-79
2022/01/19 03:24:13;;;;;;;;;;;0.20;99.90;;;;;;5085144;28;19963;-79
2022/01/19 03:26:41;;;;;;;;;;;0.30;99.90;;;;;;5083612;28;19929;-80
2022/01/19 03:29:08;;;;;;;;;;;0.40;99.90;;;;;;5081375;28;20007;-80
2022/01/19 03:31:35;;;;;;;;;;;0.50;99.90;;;;;;5083070;28;20011;-79
2022/01/19 03:34:02;;;;;;;;;;;0.60;99.90;;;;;;5085459;28;19925;-79
2022/01/19 03:36:28;;;;;;;;;;;0.80;99.90;;;;;;5075815;28;20032;-78
2022/01/19 03:38:55;;;;;;;;;;;0.90;99.90;;;;;;5071869;28;19980;-77
2022/01/19 03:41:22;;;;;;;;;;;1.10;99.90;;;;;;5071705;28;19924;-79
2022/01/19 03:43:50;;;;;;;;;;;1.40;99.90;;;;;;5075535;28;19928;-77
2022/01/19 03:46:17;;;;;;;;;;;1.60;99.90;;;;;;5071851;28;19958;-78
2022/01/19 03:48:51;;;;;;;;;;;1.70;99.90;;;;;;5073292;28;19931;-77
2022/01/19 03:51:18;;;;;;;;;;;1.70;99.90;;;;;;5077598;28;19968;-78
2022/01/19 03:53:44;;;;;;;;;;;1.70;99.90;;;;;;5080522;28;19931;-79
2022/01/19 03:56:11;;;;;;;;;;;1.60;99.90;;;;;;5079231;28;19931;-77
2022/01/19 03:58:40;;;;;;;;;;;1.60;99.90;;;;;;5075916;28;20401;-77
2022/01/19 04:01:09;;;;;;;;;;;1.60;99.90;;;;;;5077311;28;19976;-79
2022/01/19 04:03:58;;;;;;;;;;;1.70;99.90;;;;;;5080915;28;19999;-78
2022/01/19 04:06:27;;;;;;;;;;;1.80;99.90;;;;;;5079591;28;19955;-78
2022/01/19 04:08:54;;;;;;;;;;;1.90;99.90;;;;;;5079040;28;19925;-78
2022/01/19 04:11:22;;;;;;;;;;;2.00;99.90;;;;;;5084497;28;20023;-77
2022/01/19 04:14:21;;;;;;;;;;;2.10;99.90;;;;;;5083070;28;19925;-78
2022/01/19 04:16:48;;;;;;;;;;;2.10;99.90;;;;;;5083364;28;19955;-78
2022/01/19 04:19:23;;;;;;;;;;;2.20;99.90;;;;;;5092622;28;19956;-79
2022/01/19 04:21:50;;;;;;;;;;;2.20;99.90;;;;;;5086917;28;19924;-77
2022/01/19 04:24:17;;;;;;;;;;;2.30;99.90;;;;;;5082467;28;19932;-77
2022/01/19 04:26:44;;;;;;;;;;;2.30;99.90;;;;;;5073319;28;19925;-78
2022/01/19 04:29:11;;;;;;;;;;;2.40;99.90;;;;;;5072427;28;19966;-77
2022/01/19 04:31:38;;;;;;;;;;;2.40;99.90;;;;;;5069983;28;19960;-77
2022/01/19 04:34:07;;;;;;;;;;;2.40;99.90;;;;;;5072249;28;19932;-77
2022/01/19 04:36:47;;;;;;;;;;;2.40;99.90;;;;;;5071458;28;20018;-78
2022/01/19 04:43:49;;;;;;;;;;;2.40;99.90;;;;;;5071205;28;19955;-77
2022/01/19 04:45:20;;;;;;;;;;;2.50;99.90;;;;;;5068568;28;20007;-77
2022/01/19 05:01:41;;;;;;;;;;;2.60;99.90;;;;;;5068276;28;19992;-77
2022/01/19 05:04:20;;;;;;;;;;;2.60;99.90;;;;;;5066934;28;20371;-76
2022/01/19 05:06:53;;;;;;;;;;;2.60;99.90;;;;;;5064532;28;20396;-77
2022/01/19 05:09:38;;;;;;;;;;;2.60;99.90;;;;;;5063036;28;19935;-76
2022/01/19 05:14:49;;;;;;;;;;;2.70;99.90;;;;;;5070858;28;19939;-78
2022/01/19 05:17:16;;;;;;;;;;;2.70;99.90;;;;;;5069888;28;19925;-76
2022/01/19 05:19:42;;;;;;;;;;;2.70;99.90;;;;;;5069042;28;19924;-76
2022/01/19 05:22:11;;;;;;;;;;;2.70;99.90;;;;;;5064283;28;19939;-76
2022/01/19 05:24:37;;;;;;;;;;;2.80;99.90;;;;;;5065725;28;19930;-76
2022/01/19 05:27:04;;;;;;;;;;;2.80;99.90;;;;;;5067030;28;19932;-76
2022/01/19 05:29:31;;;;;;;;;;;2.80;99.90;;;;;;5063295;28;20434;-76
2022/01/19 05:31:57;;;;;;;;;;;2.80;99.90;;;;;;5063102;28;19954;-76
2022/01/19 05:34:24;;;;;;;;;;;2.90;99.90;;;;;;5064535;28;19925;-76
2022/01/19 05:36:51;;;;;;;;;;;2.90;99.90;;;;;;5062423;28;19924;-76
2022/01/19 05:39:19;;;;;;;;;;;2.90;99.90;;;;;;5060862;28;19928;-76
2022/01/19 05:41:45;;;;;;;;;;;2.90;99.90;;;;;;5065613;28;20629;-75
2022/01/19 05:44:12;;;;;;;;;;;2.90;99.90;;;;;;5064086;28;19943;-75
2022/01/19 05:46:39;;;;;;;;;;;2.90;99.90;;;;;;5069428;28;20031;-77
2022/01/19 05:49:05;;;;;;;;;;;2.90;99.90;;;;;;5066821;28;19943;-76
2022/01/19 05:51:32;;;;;;;;;;;2.90;99.90;;;;;;5064889;28;19931;-76
2022/01/19 05:53:59;;;;;;;;;;;2.90;99.90;;;;;;5065799;28;20043;-75
2022/01/19 05:56:27;;;;;;;;;;;2.90;99.90;;;;;;5065517;28;21423;-76
2022/01/19 05:58:54;;;;;;;;;;;3.00;99.90;;;;;;5066367;28;19933;-76
2022/01/19 06:01:20;;;;;;;;;;;3.00;99.90;;;;;;5068629;28;19928;-77
2022/01/19 06:03:47;;;;;;;;;;;3.00;99.90;;;;;;5066301;28;20645;-76
2022/01/19 06:06:14;;;;;;;;;;;3.00;99.90;;;;;;5064866;28;20455;-76
2022/01/19 06:08:43;;;;;;;;;;;3.00;99.90;;;;;;5068786;28;19958;-76
2022/01/19 06:11:09;;;;;;;;;;;3.00;99.90;;;;;;5070970;28;20702;-76
2022/01/19 06:13:41;;;;;;;;;;;3.00;99.90;;;;;;5070679;28;19932;-76
2022/01/19 06:16:07;;;;;;;;;;;3.00;99.90;;;;;;5066718;28;19928;-77
2022/01/19 06:18:34;;;;;;;;;;;3.10;99.90;;;;;;5067958;28;20287;-77
2022/01/19 06:21:01;;;;;;;;;;;3.10;99.90;;;;;;5071198;28;19928;-77
2022/01/19 06:23:27;;;;;;;;;;;3.20;99.90;;;;;;5066870;28;19924;-76
2022/01/19 06:25:54;;;;;;;;;;;3.20;99.90;;;;;;5064749;28;19943;-77
2022/01/19 06:28:21;;;;;;;;;;;3.20;99.90;;;;;;5064352;28;20387;-77
2022/01/19 06:30:49;;;;;;;;;;;3.20;99.90;;;;;;5065251;28;19932;-75
2022/01/19 06:33:16;;;;;;;;;;;3.30;99.90;;;;;;5068578;28;19934;-75
2022/01/19 06:35:42;;;;;;;;;;;3.30;99.90;;;;;;5071175;28;19924;-77
2022/01/19 06:38:09;;;;;;;;;;;3.40;99.90;;;;;;5068884;28;19928;-77
2022/01/19 06:40:39;;;;;;;;;;;3.40;99.90;;;;;;5069091;28;19972;-76
2022/01/19 06:43:05;;;;;;;;;;;3.50;99.90;;;;;;5069488;28;19964;-76
2022/01/19 06:45:32;;;;;;;;;;;3.60;99.90;;;;;;5071418;28;20015;-77
2022/01/19 06:48:00;;;;;;;;;;;3.60;99.90;;;;;;5066238;28;19924;-76
2022/01/19 06:50:31;;;;;;;;;;;3.70;99.90;;;;;;5070450;28;19925;-75
2022/01/19 06:52:58;;;;;;;;;;;3.70;99.90;;;;;;5066767;28;20443;-77
2022/01/19 06:55:25;;;;;;;;;;;3.80;99.90;;;;;;5066681;28;20318;-76
2022/01/19 06:57:51;;;;;;;;;;;3.80;99.90;;;;;;5069922;28;20383;-77
2022/01/19 07:00:18;;;;;;;;;;;3.90;99.90;;;;;;5082171;28;19932;-78
2022/01/19 07:02:45;;;;;;;;;;;3.90;99.90;;;;;;5071818;28;20031;-79
2022/01/19 07:05:13;;;;;;;;;;;3.90;99.90;;;;;;5074338;28;19924;-79
2022/01/19 07:07:40;;;;;;;;;;;4.00;99.90;;;;;;5072636;28;19925;-79
2022/01/19 07:10:07;;;;;;;;;;;4.00;99.90;;;;;;5074114;28;19931;-80
2022/01/19 07:12:34;;;;;;;;;;;4.00;99.90;;;;;;5074753;28;19976;-80
2022/01/19 07:15:01;;;;;;;;;;;4.00;99.90;;;;;;5080116;28;20008;-81
2022/01/19 07:17:27;;;;;;;;;;;3.90;99.90;;;;;;5079425;28;19979;-81
2022/01/19 07:19:54;;;;;;;;;;;3.90;99.90;;;;;;5076118;28;19924;-80
2022/01/19 07:22:22;;;;;;;;;;;3.80;99.90;;;;;;5074572;28;20020;-81
2022/01/19 07:24:49;;;;;;;;;;;3.80;99.90;;;;;;5076875;28;19924;-80
2022/01/19 07:27:16;;;;;;;;;;;3.70;99.90;;;;;;5079801;28;20387;-83
2022/01/19 07:29:42;;;;;;;;;;;3.70;99.90;;;;;;5075516;28;20431;-81
2022/01/19 07:32:11;;;;;;;;;;;3.70;99.90;;;;;;5078397;28;20010;-80
2022/01/19 07:34:38;;;;;;;;;;;3.70;99.90;;;;;;5074402;28;19931;-81
2022/01/19 07:37:05;;;;;;;;;;;3.70;99.90;;;;;;5081196;28;20310;-80
2022/01/19 07:39:33;;;;;;;;;;;3.70;99.90;;;;;;5082582;28;19967;-79
2022/01/19 07:41:59;;;;;;;;;;;3.60;99.90;;;;;;5084290;28;19925;-80
2022/01/19 07:44:26;;;;;;;;;;;3.70;99.90;;;;;;5071310;28;19929;-78
2022/01/19 07:46:53;;;;;;;;;;;3.60;99.90;;;;;;5064517;28;19925;-79
2022/01/19 07:49:20;;;;;;;;;;;3.60;99.90;;;;;;5065931;28;20027;-78
2022/01/19 07:51:46;;;;;;;;;;;3.60;99.90;;;;;;5068060;28;19933;-77
2022/01/19 07:54:13;;;;;;;;;;;3.60;99.90;;;;;;5071884;28;20286;-78
2022/01/19 07:56:41;;;;;;;;;;;3.60;99.90;;;;;;5068848;28;19954;-78
2022/01/19 07:59:08;;;;;;;;;;;3.60;99.90;;;;;;5068116;28;19931;-77
2022/01/19 08:01:35;;;;;;;;;;;3.70;99.90;;;;;;5068267;28;20008;-77
2022/01/19 08:04:02;;;;;;;;;;;3.60;99.90;;;;;;5067839;28;19924;-78
2022/01/19 08:06:28;;;;;;;;;;;3.60;99.90;;;;;;5065825;28;20383;-78
2022/01/19 08:08:55;;;;;;;;;;;3.70;99.90;;;;;;5066866;28;19933;-78
2022/01/19 08:11:22;;;;;;;;;;;3.70;99.90;;;;;;5071193;28;20338;-79
2022/01/19 08:13:50;;;;;;;;;;;3.70;99.90;;;;;;5069169;28;20291;-78
2022/01/19 08:16:17;;;;;;;;;;;3.80;99.90;;;;;;5067083;28;19931;-78
2022/01/19 08:18:44;;;;;;;;;;;3.80;99.90;;;;;;5067372;28;19924;-78
2022/01/19 08:21:10;;;;;;;;;;;3.70;99.90;;;;;;5064238;28;20372;-78
2022/01/19 08:23:37;;;;;;;;;;;3.70;99.90;;;;;;5070859;28;20405;-78
2022/01/19 08:26:04;;;;;;;;;;;3.70;99.90;;;;;;5070061;28;19939;-78
2022/01/19 08:28:30;;;;;;;;;;;3.70;99.90;;;;;;5067073;28;19928;-77
2022/01/19 08:30:58;;;;;;;;;;;3.70;99.90;;;;;;5072537;28;19924;-79
2022/01/19 08:33:25;;;;;;;;;;;3.80;99.90;;;;;;5069355;28;19939;-73
2022/01/19 08:35:52;;;;;;;;;;;3.80;99.90;;;;;;5065527;28;19931;-74
2022/01/19 08:38:19;;;;;;;;;;;3.80;99.90;;;;;;5074470;28;19948;-78
2022/01/19 08:40:46;;;;;;;;;;;3.90;99.90;;;;;;5073721;28;19970;-78
2022/01/19 08:43:12;;;;;;;;;;;3.90;99.90;;;;;;5071665;28;20921;-77
2022/01/19 08:45:39;;;;;;;;;;;4.00;99.90;;;;;;5074303;28;19951;-77
2022/01/19 08:48:08;;;;;;;;;;;4.00;99.90;;;;;;5071033;28;20003;-74
2022/01/19 08:50:35;;;;;;;;;;;4.00;99.90;;;;;;5074363;28;19928;-78
2022/01/19 08:53:02;;;;;;;;;;;4.00;99.90;;;;;;5073409;28;19924;-78
2022/01/19 08:55:29;;;;;;;;;;;4.10;99.90;;;;;;5070165;28;19925;-77
2022/01/19 08:57:56;;;;;;;;;;;4.10;99.90;;;;;;5068695;28;20409;-76
2022/01/19 09:00:23;;;;;;;;;;;4.10;99.90;;;;;;5072828;28;19967;-78
2022/01/19 09:02:50;;;;;;;;;;;4.10;99.90;;;;;;5061452;28;19947;-78
2022/01/19 09:05:18;;;;;;;;;;;4.20;99.90;;;;;;5065135;28;19929;-77
2022/01/19 09:07:44;;;;;;;;;;;4.20;99.90;;;;;;5066654;28;19924;-77
2022/01/19 09:10:11;;;;;;;;;;;4.20;99.90;;;;;;5065900;28;19931;-78
2022/01/19 09:12:38;;;;;;;;;;;4.20;99.90;;;;;;5065375;28;20008;-78
2022/01/19 09:15:06;;;;;;;;;;;4.20;99.90;;;;;;5073971;28;19924;-78
2022/01/19 09:17:32;;;;;;;;;;;4.20;99.90;;;;;;5072169;28;19924;-78
2022/01/19 09:19:59;;;;;;;;;;;4.20;99.90;;;;;;5068752;28;19924;-78
2022/01/19 09:22:27;;;;;;;;;;;4.30;99.90;;;;;;5070489;28;19931;-78
2022/01/19 09:24:54;;;;;;;;;;;4.30;99.90;;;;;;5069174;28;19978;-78
2022/01/19 09:27:21;;;;;;;;;;;4.20;99.90;;;;;;5069711;28;19925;-77
2022/01/19 09:29:48;;;;;;;;;;;4.20;99.90;;;;;;5069926;28;19924;-77
2022/01/19 09:32:15;;;;;;;;;;;4.20;99.90;;;;;;5070139;28;19924;-77
2022/01/19 09:34:47;;;;;;;;;;;4.20;99.90;;;;;;5068795;28;19925;-77
2022/01/19 09:37:13;;;;;;;;;;;4.20;99.90;;;;;;5070262;28;19931;-76
2022/01/19 09:39:41;;;;;;;;;;;4.10;99.90;;;;;;5067949;28;19924;-78
2022/01/19 09:42:08;;;;;;;;;;;4.10;99.90;;;;;;5072498;28;20027;-77
2022/01/19 09:44:35;;;;;;;;;;;4.10;99.90;;;;;;5071522;28;20303;-78
2022/01/19 09:47:02;;;;;;;;;;;4.20;99.90;;;;;;5067674;28;20350;-78
2022/01/19 09:49:28;;;;;;;;;;;4.20;99.90;;;;;;5072917;28;19929;-78
2022/01/19 09:51:55;;;;;;;;;;;4.20;99.90;;;;;;5071861;28;19931;-77
2022/01/19 09:54:23;;;;;;;;;;;4.20;99.90;;;;;;5071245;28;19977;-77
2022/01/19 09:56:52;;;;;;;;;;;4.20;99.90;;;;;;5068879;28;19936;-77
2022/01/19 09:59:19;;;;;;;;;;;4.20;99.90;;;;;;5073489;28;19933;-78
2022/01/19 10:01:49;;;;;;;;;;;4.30;99.90;;;;;;5070996;28;20959;-77
2022/01/19 10:04:17;;;;;;;;;;;4.30;99.90;;;;;;5072116;28;19939;-77
2022/01/19 10:06:43;;;;;;;;;;;4.30;99.90;;;;;;5071173;28;19925;-74
2022/01/19 10:09:10;;;;;;;;;;;4.30;99.90;;;;;;5074646;28;19954;-76
2022/01/19 10:17:06;;;;;;;;;;;4.40;99.90;;;;;;5070386;28;19958;-79
2022/01/19 10:19:37;;;;;;;;;;;4.40;99.90;;;;;;5078561;28;19932;-79
2022/01/19 10:22:09;;;;;;;;;;;4.50;99.90;;;;;;5071524;28;19931;-76
2022/01/19 10:24:39;;;;;;;;;;;4.50;99.90;;;;;;5074025;28;19939;-77
2022/01/19 10:27:18;;;;;;;;;;;4.50;99.90;;;;;;5071094;28;19925;-76
2022/01/19 10:29:46;;;;;;;;;;;4.50;99.90;;;;;;5068624;28;19924;-75
2022/01/19 10:32:13;;;;;;;;;;;4.50;99.90;;;;;;5065034;28;19930;-76
2022/01/19 10:34:40;;;;;;;;;;;4.60;99.90;;;;;;5071766;28;20010;-75
2022/01/19 10:37:07;;;;;;;;;;;4.60;99.90;;;;;;5070171;28;19924;-75
2022/01/19 10:39:40;;;;;;;;;;;4.70;99.90;;;;;;5069514;28;19959;-76
2022/01/19 10:42:08;;;;;;;;;;;4.70;99.90;;;;;;5065451;28;19925;-76
2022/01/19 10:44:35;;;;;;;;;;;4.70;99.90;;;;;;5072138;28;19955;-76
2022/01/19 10:47:07;;;;;;;;;;;4.60;99.90;;;;;;5071020;28;19928;-76
2022/01/19 10:49:47;;;;;;;;;;;4.60;99.90;;;;;;5067269;28;19928;-76
2022/01/19 10:52:25;;;;;;;;;;;4.60;99.90;;;;;;5067347;28;19932;-77
2022/01/19 10:54:52;;;;;;;;;;;4.60;99.90;;;;;;5066999;28;19924;-76
2022/01/19 10:57:19;;;;;;;;;;;4.50;99.90;;;;;;5066573;28;19924;-74
2022/01/19 10:59:45;;;;;;;;;;;4.50;99.90;;;;;;5066686;28;19928;-76
2022/01/19 11:02:13;;;;;;;;;;;4.50;99.90;;;;;;5067097;28;19932;-78
2022/01/19 11:04:42;;;;;;;;;;;4.50;99.90;;;;;;5066087;28;19971;-75
2022/01/19 11:07:11;;;;;;;;;;;4.50;99.90;;;;;;5065929;28;19925;-76
2022/01/19 11:09:45;;;;;;;;;;;4.50;99.90;;;;;;5068298;28;21649;-75
2022/01/19 11:12:14;;;;;;;;;;;4.50;99.90;;;;;;5063494;28;19940;-75
2022/01/19 11:14:42;;;;;;;;;;;4.50;99.90;;;;;;5069785;28;19924;-78
2022/01/19 11:17:09;;;;;;;;;;;4.50;99.90;;;;;;5074439;28;19963;-75
2022/01/19 11:19:38;;;;;;;;;;;4.50;99.90;;;;;;5068732;28;19932;-76
2022/01/19 11:22:23;;;;;;;;;;;4.50;99.90;;;;;;5065621;28;19933;-75
2022/01/19 11:24:58;;;;;;;;;;;4.60;99.90;;;;;;5067882;28;19964;-74
2022/01/19 11:27:28;;;;;;;;;;;4.60;99.90;;;;;;5067585;28;19991;-76
2022/01/19 11:30:08;;;;;;;;;;;4.60;99.90;;;;;;5069247;28;19940;-74
2022/01/19 11:32:35;;;;;;;;;;;4.60;99.90;;;;;;5066802;28;20480;-78
2022/01/19 11:35:03;;;;;;;;;;;4.60;99.90;;;;;;5060640;28;19924;-74
2022/01/19 11:37:36;;;;;;;;;;;4.60;99.90;;;;;;5065532;28;20430;-75
2022/01/19 11:40:07;;;;;;;;;;;4.60;99.90;;;;;;5076582;28;19929;-78
2022/01/19 11:42:33;;;;;;;;;;;4.60;99.90;;;;;;5074212;28;19924;-77
2022/01/19 11:45:00;;;;;;;;;;;4.60;99.90;;;;;;5074144;28;19971;-79
2022/01/19 11:47:31;;;;;;;;;;;4.70;99.90;;;;;;5089011;28;19994;-81
2022/01/19 11:50:02;;;;;;;;;;;4.70;99.90;;;;;;5066759;28;19932;-77
2022/01/19 11:52:53;;;;;;;;;;;4.80;99.90;;;;;;5069942;28;19930;-77
2022/01/19 11:55:21;;;;;;;;;;;4.80;99.90;;;;;;5074523;28;19940;-79
2022/01/19 11:57:49;;;;;;;;;;;4.90;99.90;;;;;;5071362;28;19992;-78
2022/01/19 12:00:17;;;;;;;;;;;5.00;99.90;;;;;;5077713;28;19931;-77
2022/01/19 12:02:48;;;;;;;;;;;5.10;99.90;;;;;;5072301;28;19934;-78
2022/01/19 12:05:20;;;;;;;;;;;5.10;99.90;;;;;;5071093;28;19932;-79
2022/01/19 12:07:50;;;;;;;;;;;5.20;99.90;;;;;;5074033;28;20023;-77
2022/01/19 12:10:19;;;;;;;;;;;5.30;99.90;;;;;;5050487;28;19937;-77
2022/01/19 12:13:09;;;;;;;;;;;5.30;99.90;;;;;;5072801;28;19931;-78
2022/01/19 12:15:53;;;;;;;;;;;5.30;99.90;;;;;;5073358;28;19985;-79
2022/01/19 12:18:34;;;;;;;;;;;5.40;99.90;;;;;;5069863;28;19947;-78
2022/01/19 12:21:01;;;;;;;;;;;5.30;99.90;;;;;;5072597;28;19931;-78
2022/01/19 12:23:30;;;;;;;;;;;5.20;99.90;;;;;;5074910;28;19924;-79
2022/01/19 12:25:57;;;;;;;;;;;5.10;99.90;;;;;;5077502;28;20015;-77
2022/01/19 12:28:44;;;;;;;;;;;5.10;99.90;;;;;;5080971;28;19924;-77
2022/01/19 12:31:30;;;;;;;;;;;5.10;99.90;;;;;;5085844;28;20397;-79
2022/01/19 12:34:15;;;;;;;;;;;5.20;99.90;;;;;;5082575;28;19999;-78
2022/01/19 12:36:42;;;;;;;;;;;5.20;99.90;;;;;;5081165;28;19970;-79
2022/01/19 12:39:28;;;;;;;;;;;5.20;99.90;;;;;;5078438;28;19980;-78
2022/01/19 12:41:58;;;;;;;;;;;5.20;99.90;;;;;;5076829;28;19987;-77
2022/01/19 12:44:38;;;;;;;;;;;5.20;99.90;;;;;;5079984;28;19908;-75
2022/01/19 12:47:11;;;;;;;;;;;5.30;99.90;;;;;;5127671;22;19924;-72
2022/01/19 12:49:40;;;;;;;;;;;5.30;99.90;;;;;;5106301;28;19981;-80
2022/01/19 12:52:15;;;;;;;;;;;5.30;99.90;;;;;;5115310;28;19980;-79
2022/01/19 12:54:42;;;;;;;;;;;5.30;99.90;;;;;;5126434;22;19909;-78
2022/01/19 12:57:15;;;;;;;;;;;5.30;99.90;;;;;;5080900;28;19909;-79
2022/01/19 12:59:42;;;;;;;;;;;5.30;99.90;;;;;;5090575;28;19930;-80
2022/01/19 13:02:08;;;;;;;;;;;5.30;99.90;;;;;;5096098;28;19940;-80
2022/01/19 13:04:36;;;;;;;;;;;5.30;99.90;;;;;;5088830;28;19947;-79
2022/01/19 13:07:13;;;;;;;;;;;5.40;99.90;;;;;;5083722;28;19931;-78
2022/01/19 13:09:59;;;;;;;;;;;5.40;99.90;;;;;;5088265;28;19929;-68
2022/01/19 13:12:34;;;;;;;;;;;5.40;99.90;;;;;;5099873;22;19915;-76
2022/01/19 13:15:01;;;;;;;;;;;5.40;99.90;;;;;;5095396;28;19951;-74
2022/01/19 13:17:42;;;;;;;;;;;5.40;99.90;;;;;;5088649;28;19915;-71
2022/01/19 13:20:10;;;;;;;;;;;5.40;99.90;;;;;;5089921;28;19968;-73
2022/01/19 13:22:46;;;;;;;;;;;5.40;99.90;;;;;;5086791;28;19915;-72
2022/01/19 13:25:17;;;;;;;;;;;5.30;99.90;;;;;;5092410;28;19975;-73
2022/01/19 13:27:45;;;;;;;;;;;5.30;99.90;;;;;;5082616;28;19908;-72
2022/01/19 13:30:12;;;;;;;;;;;5.30;99.90;;;;;;5101832;28;19908;-73
2022/01/19 13:32:39;;;;;;;;;;;5.30;99.90;;;;;;5101656;28;19909;-70
2022/01/19 13:35:07;;;;;;;;;;;5.20;99.90;;;;;;5094534;28;19913;-76
2022/01/19 13:37:36;;;;;;;;;;;5.30;99.90;;;;;;5083068;28;19975;-79
2022/01/19 13:40:05;;;;;;;;;;;5.20;99.90;;;;;;5077207;28;19946;-78
2022/01/19 13:42:34;;;;;;;;;;;5.30;99.90;;;;;;5083173;28;20028;-79
2022/01/19 13:45:08;;;;;;;;;;;5.20;99.90;;;;;;5076843;28;19935;-79
2022/01/19 13:47:52;;;;;;;;;;;5.30;99.90;;;;;;5092461;28;19948;-77
2022/01/19 13:50:19;;;;;;;;;;;5.30;99.90;;;;;;5076941;28;20390;-79
2022/01/19 13:52:46;;;;;;;;;;;5.30;99.90;;;;;;5087468;28;19936;-79
2022/01/19 13:55:17;;;;;;;;;;;5.30;99.90;;;;;;5095858;28;19948;-79
2022/01/19 13:57:43;;;;;;;;;;;5.30;99.90;;;;;;5085402;28;19908;-74
2022/01/19 14:00:15;;;;;;;;;;;5.30;99.90;;;;;;5084857;28;19920;-79
2022/01/19 14:02:44;;;;;;;;;;;5.30;99.90;;;;;;5086512;28;19931;-70
2022/01/19 14:05:11;;;;;;;;;;;5.40;99.90;;;;;;5092587;28;19964;-78
2022/01/19 14:07:46;;;;;;;;;;;5.30;99.90;;;;;;5086708;28;19967;-81
2022/01/19 14:10:15;;;;;;;;;;;5.30;99.90;;;;;;5098817;28;19952;-80
2022/01/19 14:12:42;;;;;;;;;;;5.30;99.90;;;;;;5092512;28;19932;-78
2022/01/19 14:15:11;;;;;;;;;;;5.40;99.90;;;;;;5082568;28;19932;-79
2022/01/19 14:17:41;;;;;;;;;;;5.40;99.90;;;;;;5077279;28;19984;-78
2022/01/19 14:20:15;;;;;;;;;;;5.40;99.90;;;;;;5076065;28;19928;-79
2022/01/19 14:22:42;;;;;;;;;;;5.40;99.90;;;;;;5087689;28;19931;-79
2022/01/19 14:25:10;;;;;;;;;;;5.40;99.90;;;;;;5080386;28;19967;-79
2022/01/19 14:27:39;;;;;;;;;;;5.40;99.90;;;;;;5074775;28;19988;-80
2022/01/19 14:30:07;;;;;;;;;;;5.40;99.90;;;;;;5083059;28;19971;-78
2022/01/19 14:32:43;;;;;;;;;;;5.40;99.90;;;;;;5080439;28;19999;-80
2022/01/19 14:35:19;;;;;;;;;;;5.40;99.90;;;;;;5084224;28;19984;-78
2022/01/19 14:37:59;;;;;;;;;;;5.40;99.90;;;;;;5081422;28;19937;-79
2022/01/19 14:40:26;;;;;;;;;;;5.40;99.90;;;;;;5073295;28;19924;-77
2022/01/19 14:42:53;;;;;;;;;;;5.40;99.90;;;;;;5076552;28;19933;-78
2022/01/19 14:45:36;;;;;;;;;;;5.40;99.90;;;;;;5082970;28;19947;-81
2022/01/19 14:48:13;;;;;;;;;;;5.40;99.90;;;;;;5076619;28;19947;-78
2022/01/19 14:50:43;;;;;;;;;;;5.40;99.90;;;;;;5069319;28;19967;-72
2022/01/19 14:53:09;;;;;;;;;;;5.40;99.90;;;;;;5057165;28;19930;-74
2022/01/19 14:55:37;;;;;;;;;;;5.40;99.90;;;;;;5052432;28;19931;-74
2022/01/19 14:58:05;;;;;;;;;;;5.40;99.90;;;;;;5059189;28;20280;-72
2022/01/19 15:00:32;;;;;;;;;;;5.40;99.90;;;;;;5053389;28;19924;-72
2022/01/19 15:03:01;;;;;;;;;;;5.40;99.90;;;;;;5058715;28;19924;-74
2022/01/19 15:05:30;;;;;;;;;;;5.40;99.90;;;;;;5057162;28;19952;-75
2022/01/19 15:07:57;;;;;;;;;;;5.40;99.90;;;;;;5060957;28;19935;-75
2022/01/19 15:10:24;;;;;;;;;;;5.40;99.90;;;;;;5064127;28;19979;-77
2022/01/19 15:12:53;;;;;;;;;;;5.40;99.90;;;;;;5056011;28;20182;-77
2022/01/19 15:15:23;;;;;;;;;;;5.40;99.90;;;;;;5054374;28;19929;-76
2022/01/19 15:17:50;;;;;;;;;;;5.40;99.90;;;;;;5060489;28;19994;-75
2022/01/19 15:20:18;;;;;;;;;;;5.40;99.90;;;;;;5065450;28;19936;-74
2022/01/19 15:22:46;;;;;;;;;;;5.40;99.90;;;;;;5052026;28;19932;-75
2022/01/19 15:25:13;;;;;;;;;;;5.40;99.90;;;;;;5055115;28;19932;-74
2022/01/19 15:27:39;;;;;;;;;;;5.40;99.90;;;;;;5055942;28;19925;-75
2022/01/19 15:30:07;;;;;;;;;;;5.40;99.90;;;;;;5053289;28;20322;-74
2022/01/19 15:32:33;;;;;;;;;;;5.30;99.90;;;;;;5053442;28;19960;-74
2022/01/19 15:35:00;;;;;;;;;;;5.30;99.90;;;;;;5054643;28;19931;-72
2022/01/19 15:37:27;;;;;;;;;;;5.30;99.90;;;;;;5054111;28;19924;-72
2022/01/19 15:39:56;;;;;;;;;;;5.30;99.90;;;;;;5056986;28;19928;-74
2022/01/19 15:42:22;;;;;;;;;;;5.30;99.90;;;;;;5057263;28;19928;-74